sensor_id;sensor_type;location;lat;lon;timestamp;P1;durP1;ratioP1;P2;durP2;ratioP2
32611;SDS011;19030;49.478;8.986;2024-02-21T00:01:54;23.73;;;20.83;;
32611;SDS011;19030;49.478;8.986;2024-02-21T00:03:54;26.35;;;22.52;;
32611;SDS011;19030;49.478;8.986;2024-02-21T00:05:55;41.55;;;33.63;;
32611;SDS011;19030;49.478;8.986;2024-02-21T00:07:56;37.10;;;26.40;;
32611;SDS011;19030;49.478;8.986;2024-02-21T00:09:59;30.20;;;24.55;;
32611;SDS011;19030;49.478;8.986;2024-02-21T00:12:00;31.35;;;20.05;;
32611;SDS011;19030;49.478;8.986;2024-02-21T00:14:01;27.00;;;21.92;;
32611;SDS011;19030;49.478;8.986;2024-02-21T00:16:02;30.80;;;22.13;;
32611;SDS011;19030;49.478;8.986;2024-02-21T00:18:02;24.38;;;21.73;;
32611;SDS011;19030;49.478;8.986;2024-02-21T00:20:03;27.50;;;21.92;;
32611;SDS011;19030;49.478;8.986;2024-02-21T00:22:04;23.52;;;20.67;;
32611;SDS011;19030;49.478;8.986;2024-02-21T00:24:05;24.38;;;21.98;;
32611;SDS011;19030;49.478;8.986;2024-02-21T00:26:06;25.55;;;22.65;;
32611;SDS011;19030;49.478;8.986;2024-02-21T00:28:07;29.38;;;22.45;;
32611;SDS011;19030;49.478;8.986;2024-02-21T00:30:08;26.35;;;22.08;;
32611;SDS011;19030;49.478;8.986;2024-02-21T00:32:09;23.50;;;21.20;;
32611;SDS011;19030;49.478;8.986;2024-02-21T00:34:10;24.88;;;22.08;;
32611;SDS011;19030;49.478;8.986;2024-02-21T00:36:12;23.48;;;21.00;;
32611;SDS011;19030;49.478;8.986;2024-02-21T00:38:13;25.70;;;22.98;;
32611;SDS011;19030;49.478;8.986;2024-02-21T00:40:13;26.17;;;22.08;;
32611;SDS011;19030;49.478;8.986;2024-02-21T00:42:19;29.25;;;23.25;;
32611;SDS011;19030;49.478;8.986;2024-02-21T00:44:21;28.75;;;23.75;;
32611;SDS011;19030;49.478;8.986;2024-02-21T00:46:21;27.33;;;24.50;;
32611;SDS011;19030;49.478;8.986;2024-02-21T00:48:22;27.42;;;24.05;;
32611;SDS011;19030;49.478;8.986;2024-02-21T00:50:23;26.63;;;23.23;;
32611;SDS011;19030;49.478;8.986;2024-02-21T00:52:23;27.73;;;22.85;;
32611;SDS011;19030;49.478;8.986;2024-02-21T00:54:24;24.95;;;22.17;;
32611;SDS011;19030;49.478;8.986;2024-02-21T00:56:24;24.95;;;22.15;;
32611;SDS011;19030;49.478;8.986;2024-02-21T00:58:25;27.05;;;21.48;;
32611;SDS011;19030;49.478;8.986;2024-02-21T01:00:25;23.70;;;20.33;;
32611;SDS011;19030;49.478;8.986;2024-02-21T01:02:26;26.23;;;21.27;;
32611;SDS011;19030;49.478;8.986;2024-02-21T01:04:26;22.58;;;20.17;;
32611;SDS011;19030;49.478;8.986;2024-02-21T01:06:27;28.73;;;21.83;;
32611;SDS011;19030;49.478;8.986;2024-02-21T01:08:27;27.63;;;21.25;;
32611;SDS011;19030;49.478;8.986;2024-02-21T01:10:28;24.30;;;21.17;;
32611;SDS011;19030;49.478;8.986;2024-02-21T01:12:29;26.48;;;22.42;;
32611;SDS011;19030;49.478;8.986;2024-02-21T01:14:29;33.50;;;21.67;;
32611;SDS011;19030;49.478;8.986;2024-02-21T01:16:30;31.40;;;23.08;;
32611;SDS011;19030;49.478;8.986;2024-02-21T01:18:30;29.77;;;22.40;;
32611;SDS011;19030;49.478;8.986;2024-02-21T01:20:31;25.38;;;22.60;;
32611;SDS011;19030;49.478;8.986;2024-02-21T01:22:31;23.52;;;21.08;;
32611;SDS011;19030;49.478;8.986;2024-02-21T01:24:32;26.83;;;21.20;;
32611;SDS011;19030;49.478;8.986;2024-02-21T01:26:33;28.55;;;20.17;;
32611;SDS011;19030;49.478;8.986;2024-02-21T01:28:34;23.05;;;20.33;;
32611;SDS011;19030;49.478;8.986;2024-02-21T01:30:35;24.75;;;19.67;;
32611;SDS011;19030;49.478;8.986;2024-02-21T01:32:36;26.23;;;22.38;;
32611;SDS011;19030;49.478;8.986;2024-02-21T01:34:36;25.08;;;22.48;;
32611;SDS011;19030;49.478;8.986;2024-02-21T01:36:37;25.10;;;22.45;;
32611;SDS011;19030;49.478;8.986;2024-02-21T01:38:38;28.35;;;21.80;;
32611;SDS011;19030;49.478;8.986;2024-02-21T01:40:38;24.33;;;21.45;;
32611;SDS011;19030;49.478;8.986;2024-02-21T01:42:39;26.77;;;21.48;;
32611;SDS011;19030;49.478;8.986;2024-02-21T01:44:42;26.25;;;22.15;;
32611;SDS011;19030;49.478;8.986;2024-02-21T01:46:43;27.73;;;21.65;;
32611;SDS011;19030;49.478;8.986;2024-02-21T01:48:43;30.67;;;22.08;;
32611;SDS011;19030;49.478;8.986;2024-02-21T01:50:46;25.35;;;21.60;;
32611;SDS011;19030;49.478;8.986;2024-02-21T01:52:48;26.10;;;22.33;;
32611;SDS011;19030;49.478;8.986;2024-02-21T01:54:49;28.52;;;22.08;;
32611;SDS011;19030;49.478;8.986;2024-02-21T01:56:50;24.83;;;20.90;;
32611;SDS011;19030;49.478;8.986;2024-02-21T01:58:52;24.92;;;22.33;;
32611;SDS011;19030;49.478;8.986;2024-02-21T02:00:53;27.92;;;22.23;;
32611;SDS011;19030;49.478;8.986;2024-02-21T02:02:56;27.73;;;22.52;;
32611;SDS011;19030;49.478;8.986;2024-02-21T02:04:57;24.85;;;22.27;;
32611;SDS011;19030;49.478;8.986;2024-02-21T02:06:59;23.52;;;21.10;;
32611;SDS011;19030;49.478;8.986;2024-02-21T02:09:03;25.33;;;20.77;;
32611;SDS011;19030;49.478;8.986;2024-02-21T02:11:03;23.17;;;20.73;;
32611;SDS011;19030;49.478;8.986;2024-02-21T02:13:04;27.77;;;20.23;;
32611;SDS011;19030;49.478;8.986;2024-02-21T02:15:05;22.15;;;19.88;;
32611;SDS011;19030;49.478;8.986;2024-02-21T02:17:06;24.33;;;19.70;;
32611;SDS011;19030;49.478;8.986;2024-02-21T02:19:06;23.15;;;19.40;;
32611;SDS011;19030;49.478;8.986;2024-02-21T02:21:09;26.33;;;20.63;;
32611;SDS011;19030;49.478;8.986;2024-02-21T02:23:23;23.52;;;19.85;;
32611;SDS011;19030;49.478;8.986;2024-02-21T02:25:29;22.40;;;20.02;;
32611;SDS011;19030;49.478;8.986;2024-02-21T02:27:29;26.00;;;19.38;;
32611;SDS011;19030;49.478;8.986;2024-02-21T02:29:31;26.05;;;18.70;;
32611;SDS011;19030;49.478;8.986;2024-02-21T02:31:32;21.95;;;19.60;;
32611;SDS011;19030;49.478;8.986;2024-02-21T02:33:33;22.15;;;19.60;;
32611;SDS011;19030;49.478;8.986;2024-02-21T02:35:34;21.52;;;19.23;;
32611;SDS011;19030;49.478;8.986;2024-02-21T02:37:36;24.27;;;18.75;;
32611;SDS011;19030;49.478;8.986;2024-02-21T02:39:38;24.52;;;17.92;;
32611;SDS011;19030;49.478;8.986;2024-02-21T02:41:38;19.38;;;17.48;;
32611;SDS011;19030;49.478;8.986;2024-02-21T02:43:39;20.33;;;18.15;;
32611;SDS011;19030;49.478;8.986;2024-02-21T02:45:40;20.63;;;17.75;;
32611;SDS011;19030;49.478;8.986;2024-02-21T02:47:40;22.40;;;16.58;;
32611;SDS011;19030;49.478;8.986;2024-02-21T02:49:41;19.88;;;16.92;;
32611;SDS011;19030;49.478;8.986;2024-02-21T02:51:42;22.17;;;17.50;;
32611;SDS011;19030;49.478;8.986;2024-02-21T02:53:43;18.73;;;15.93;;
32611;SDS011;19030;49.478;8.986;2024-02-21T02:55:44;20.95;;;16.35;;
32611;SDS011;19030;49.478;8.986;2024-02-21T02:57:44;23.42;;;16.40;;
32611;SDS011;19030;49.478;8.986;2024-02-21T02:59:48;27.48;;;17.58;;
32611;SDS011;19030;49.478;8.986;2024-02-21T03:01:49;17.88;;;16.08;;
32611;SDS011;19030;49.478;8.986;2024-02-21T03:03:50;19.35;;;16.52;;
32611;SDS011;19030;49.478;8.986;2024-02-21T03:05:50;21.35;;;17.42;;
32611;SDS011;19030;49.478;8.986;2024-02-21T03:07:51;20.63;;;17.02;;
32611;SDS011;19030;49.478;8.986;2024-02-21T03:09:51;19.38;;;17.13;;
32611;SDS011;19030;49.478;8.986;2024-02-21T03:11:53;20.73;;;16.95;;
32611;SDS011;19030;49.478;8.986;2024-02-21T03:13:57;21.02;;;16.75;;
32611;SDS011;19030;49.478;8.986;2024-02-21T03:15:57;26.58;;;17.23;;
32611;SDS011;19030;49.478;8.986;2024-02-21T03:17:58;21.25;;;16.80;;
32611;SDS011;19030;49.478;8.986;2024-02-21T03:19:59;21.48;;;16.40;;
32611;SDS011;19030;49.478;8.986;2024-02-21T03:22:00;23.98;;;16.95;;
32611;SDS011;19030;49.478;8.986;2024-02-21T03:24:00;21.52;;;16.13;;
32611;SDS011;19030;49.478;8.986;2024-02-21T03:26:01;20.88;;;15.90;;
32611;SDS011;19030;49.478;8.986;2024-02-21T03:28:01;19.23;;;15.35;;
32611;SDS011;19030;49.478;8.986;2024-02-21T03:30:02;20.52;;;16.05;;
32611;SDS011;19030;49.478;8.986;2024-02-21T03:32:04;20.95;;;16.92;;
32611;SDS011;19030;49.478;8.986;2024-02-21T03:34:05;19.95;;;15.20;;
32611;SDS011;19030;49.478;8.986;2024-02-21T03:36:05;22.13;;;16.13;;
32611;SDS011;19030;49.478;8.986;2024-02-21T03:38:06;23.15;;;16.23;;
32611;SDS011;19030;49.478;8.986;2024-02-21T03:40:08;22.65;;;16.15;;
32611;SDS011;19030;49.478;8.986;2024-02-21T03:42:09;22.88;;;16.30;;
32611;SDS011;19030;49.478;8.986;2024-02-21T03:44:10;28.48;;;16.70;;
32611;SDS011;19030;49.478;8.986;2024-02-21T03:46:10;23.33;;;16.33;;
32611;SDS011;19030;49.478;8.986;2024-02-21T03:48:11;23.40;;;16.02;;
32611;SDS011;19030;49.478;8.986;2024-02-21T03:50:11;21.75;;;16.98;;
32611;SDS011;19030;49.478;8.986;2024-02-21T03:52:12;20.52;;;15.85;;
32611;SDS011;19030;49.478;8.986;2024-02-21T03:54:12;21.70;;;15.98;;
32611;SDS011;19030;49.478;8.986;2024-02-21T03:56:13;19.60;;;16.48;;
32611;SDS011;19030;49.478;8.986;2024-02-21T03:58:14;22.95;;;16.42;;
32611;SDS011;19030;49.478;8.986;2024-02-21T04:00:14;19.40;;;17.38;;
32611;SDS011;19030;49.478;8.986;2024-02-21T04:02:15;23.85;;;17.20;;
32611;SDS011;19030;49.478;8.986;2024-02-21T04:04:17;20.60;;;16.92;;
32611;SDS011;19030;49.478;8.986;2024-02-21T04:06:18;19.15;;;16.75;;
32611;SDS011;19030;49.478;8.986;2024-02-21T04:08:19;21.80;;;17.00;;
32611;SDS011;19030;49.478;8.986;2024-02-21T04:10:19;19.27;;;17.05;;
32611;SDS011;19030;49.478;8.986;2024-02-21T04:12:20;25.35;;;17.13;;
32611;SDS011;19030;49.478;8.986;2024-02-21T04:14:21;22.60;;;17.10;;
32611;SDS011;19030;49.478;8.986;2024-02-21T04:16:21;19.67;;;17.77;;
32611;SDS011;19030;49.478;8.986;2024-02-21T04:18:22;19.90;;;16.75;;
32611;SDS011;19030;49.478;8.986;2024-02-21T04:20:22;21.58;;;16.83;;
32611;SDS011;19030;49.478;8.986;2024-02-21T04:22:23;25.13;;;18.55;;
32611;SDS011;19030;49.478;8.986;2024-02-21T04:24:23;22.52;;;19.05;;
32611;SDS011;19030;49.478;8.986;2024-02-21T04:26:24;25.13;;;17.58;;
32611;SDS011;19030;49.478;8.986;2024-02-21T04:28:24;19.20;;;17.20;;
32611;SDS011;19030;49.478;8.986;2024-02-21T04:30:25;25.10;;;19.52;;
32611;SDS011;19030;49.478;8.986;2024-02-21T04:32:25;22.50;;;18.30;;
32611;SDS011;19030;49.478;8.986;2024-02-21T04:34:27;25.48;;;17.80;;
32611;SDS011;19030;49.478;8.986;2024-02-21T04:36:27;30.70;;;19.60;;
32611;SDS011;19030;49.478;8.986;2024-02-21T04:38:28;27.20;;;19.55;;
32611;SDS011;19030;49.478;8.986;2024-02-21T04:40:29;20.75;;;18.58;;
32611;SDS011;19030;49.478;8.986;2024-02-21T04:42:29;21.23;;;18.85;;
32611;SDS011;19030;49.478;8.986;2024-02-21T04:44:30;25.52;;;19.23;;
32611;SDS011;19030;49.478;8.986;2024-02-21T04:46:30;20.92;;;18.85;;
32611;SDS011;19030;49.478;8.986;2024-02-21T04:48:31;21.50;;;19.23;;
32611;SDS011;19030;49.478;8.986;2024-02-21T04:50:32;24.35;;;19.42;;
32611;SDS011;19030;49.478;8.986;2024-02-21T04:52:32;24.63;;;19.77;;
32611;SDS011;19030;49.478;8.986;2024-02-21T04:54:33;21.45;;;19.15;;
32611;SDS011;19030;49.478;8.986;2024-02-21T04:56:35;23.55;;;17.95;;
32611;SDS011;19030;49.478;8.986;2024-02-21T04:58:39;26.33;;;18.33;;
32611;SDS011;19030;49.478;8.986;2024-02-21T05:00:39;27.05;;;17.42;;
32611;SDS011;19030;49.478;8.986;2024-02-21T05:02:40;21.85;;;17.02;;
32611;SDS011;19030;49.478;8.986;2024-02-21T05:04:42;20.38;;;18.15;;
32611;SDS011;19030;49.478;8.986;2024-02-21T05:06:43;23.45;;;19.13;;
32611;SDS011;19030;49.478;8.986;2024-02-21T05:08:43;22.95;;;18.35;;
32611;SDS011;19030;49.478;8.986;2024-02-21T05:10:44;23.73;;;20.55;;
32611;SDS011;19030;49.478;8.986;2024-02-21T05:12:45;22.38;;;18.15;;
32611;SDS011;19030;49.478;8.986;2024-02-21T05:14:45;21.42;;;18.02;;
32611;SDS011;19030;49.478;8.986;2024-02-21T05:16:47;24.60;;;19.45;;
32611;SDS011;19030;49.478;8.986;2024-02-21T05:18:47;20.20;;;18.20;;
32611;SDS011;19030;49.478;8.986;2024-02-21T05:20:48;23.48;;;16.85;;
32611;SDS011;19030;49.478;8.986;2024-02-21T05:22:48;20.50;;;17.65;;
32611;SDS011;19030;49.478;8.986;2024-02-21T05:24:49;20.30;;;17.90;;
32611;SDS011;19030;49.478;8.986;2024-02-21T05:26:49;20.25;;;18.10;;
32611;SDS011;19030;49.478;8.986;2024-02-21T05:28:50;21.25;;;19.05;;
32611;SDS011;19030;49.478;8.986;2024-02-21T05:30:51;20.60;;;17.60;;
32611;SDS011;19030;49.478;8.986;2024-02-21T05:32:51;20.20;;;18.08;;
32611;SDS011;19030;49.478;8.986;2024-02-21T05:34:52;22.30;;;18.98;;
32611;SDS011;19030;49.478;8.986;2024-02-21T05:36:52;28.05;;;19.35;;
32611;SDS011;19030;49.478;8.986;2024-02-21T05:38:53;26.83;;;19.77;;
32611;SDS011;19030;49.478;8.986;2024-02-21T05:40:54;23.05;;;18.90;;
32611;SDS011;19030;49.478;8.986;2024-02-21T05:42:54;21.55;;;18.52;;
32611;SDS011;19030;49.478;8.986;2024-02-21T05:44:55;23.67;;;17.77;;
32611;SDS011;19030;49.478;8.986;2024-02-21T05:46:55;22.08;;;18.45;;
32611;SDS011;19030;49.478;8.986;2024-02-21T05:48:56;21.55;;;19.35;;
32611;SDS011;19030;49.478;8.986;2024-02-21T05:50:56;24.52;;;20.27;;
32611;SDS011;19030;49.478;8.986;2024-02-21T05:52:57;24.95;;;20.52;;
32611;SDS011;19030;49.478;8.986;2024-02-21T05:54:58;21.30;;;17.88;;
32611;SDS011;19030;49.478;8.986;2024-02-21T05:56:58;20.27;;;18.13;;
32611;SDS011;19030;49.478;8.986;2024-02-21T05:58:59;25.23;;;20.15;;
32611;SDS011;19030;49.478;8.986;2024-02-21T06:01:00;25.33;;;20.23;;
32611;SDS011;19030;49.478;8.986;2024-02-21T06:03:01;21.15;;;18.85;;
32611;SDS011;19030;49.478;8.986;2024-02-21T06:05:02;23.83;;;19.48;;
32611;SDS011;19030;49.478;8.986;2024-02-21T06:07:05;19.75;;;17.23;;
32611;SDS011;19030;49.478;8.986;2024-02-21T06:09:05;19.42;;;15.75;;
32611;SDS011;19030;49.478;8.986;2024-02-21T06:11:06;18.38;;;16.45;;
32611;SDS011;19030;49.478;8.986;2024-02-21T06:13:06;16.17;;;9.20;;
32611;SDS011;19030;49.478;8.986;2024-02-21T06:15:07;16.40;;;6.68;;
32611;SDS011;19030;49.478;8.986;2024-02-21T06:17:08;16.33;;;7.53;;
32611;SDS011;19030;49.478;8.986;2024-02-21T06:19:08;19.05;;;15.75;;
32611;SDS011;19030;49.478;8.986;2024-02-21T06:21:09;21.27;;;16.65;;
32611;SDS011;19030;49.478;8.986;2024-02-21T06:23:11;22.73;;;18.42;;
32611;SDS011;19030;49.478;8.986;2024-02-21T06:25:12;18.05;;;13.85;;
32611;SDS011;19030;49.478;8.986;2024-02-21T06:27:13;18.38;;;11.65;;
32611;SDS011;19030;49.478;8.986;2024-02-21T06:29:16;18.63;;;11.80;;
32611;SDS011;19030;49.478;8.986;2024-02-21T06:31:16;21.80;;;13.43;;
32611;SDS011;19030;49.478;8.986;2024-02-21T06:33:17;14.70;;;11.88;;
32611;SDS011;19030;49.478;8.986;2024-02-21T06:35:18;22.40;;;11.85;;
32611;SDS011;19030;49.478;8.986;2024-02-21T06:37:19;21.85;;;11.23;;
32611;SDS011;19030;49.478;8.986;2024-02-21T06:39:20;14.80;;;11.48;;
32611;SDS011;19030;49.478;8.986;2024-02-21T06:41:21;24.52;;;14.82;;
32611;SDS011;19030;49.478;8.986;2024-02-21T06:43:22;36.83;;;21.45;;
32611;SDS011;19030;49.478;8.986;2024-02-21T06:45:22;17.95;;;11.95;;
32611;SDS011;19030;49.478;8.986;2024-02-21T06:47:23;16.45;;;12.15;;
32611;SDS011;19030;49.478;8.986;2024-02-21T06:49:23;23.75;;;11.15;;
32611;SDS011;19030;49.478;8.986;2024-02-21T06:51:24;17.63;;;10.25;;
32611;SDS011;19030;49.478;8.986;2024-02-21T06:53:25;16.23;;;10.38;;
32611;SDS011;19030;49.478;8.986;2024-02-21T06:55:25;21.17;;;12.27;;
32611;SDS011;19030;49.478;8.986;2024-02-21T06:57:28;17.50;;;10.85;;
32611;SDS011;19030;49.478;8.986;2024-02-21T06:59:29;14.70;;;10.77;;
32611;SDS011;19030;49.478;8.986;2024-02-21T07:01:30;13.75;;;9.75;;
32611;SDS011;19030;49.478;8.986;2024-02-21T07:03:30;11.73;;;9.63;;
32611;SDS011;19030;49.478;8.986;2024-02-21T07:05:31;14.07;;;10.35;;
32611;SDS011;19030;49.478;8.986;2024-02-21T07:07:31;19.30;;;9.70;;
32611;SDS011;19030;49.478;8.986;2024-02-21T07:09:32;15.75;;;9.75;;
32611;SDS011;19030;49.478;8.986;2024-02-21T07:11:32;14.48;;;10.13;;
32611;SDS011;19030;49.478;8.986;2024-02-21T07:13:33;21.00;;;10.10;;
32611;SDS011;19030;49.478;8.986;2024-02-21T07:15:34;16.02;;;11.00;;
32611;SDS011;19030;49.478;8.986;2024-02-21T07:17:36;15.95;;;10.98;;
32611;SDS011;19030;49.478;8.986;2024-02-21T07:19:36;15.70;;;10.35;;
32611;SDS011;19030;49.478;8.986;2024-02-21T07:21:37;17.25;;;11.02;;
32611;SDS011;19030;49.478;8.986;2024-02-21T07:23:42;16.70;;;11.35;;
32611;SDS011;19030;49.478;8.986;2024-02-21T07:25:43;17.08;;;11.10;;
32611;SDS011;19030;49.478;8.986;2024-02-21T07:27:44;14.80;;;10.77;;
32611;SDS011;19030;49.478;8.986;2024-02-21T07:29:44;17.52;;;11.40;;
32611;SDS011;19030;49.478;8.986;2024-02-21T07:31:48;15.35;;;11.25;;
32611;SDS011;19030;49.478;8.986;2024-02-21T07:33:48;15.82;;;11.60;;
32611;SDS011;19030;49.478;8.986;2024-02-21T07:35:49;14.73;;;11.30;;
32611;SDS011;19030;49.478;8.986;2024-02-21T07:37:49;17.73;;;11.57;;
32611;SDS011;19030;49.478;8.986;2024-02-21T07:39:50;19.92;;;11.85;;
32611;SDS011;19030;49.478;8.986;2024-02-21T07:41:50;18.88;;;13.60;;
32611;SDS011;19030;49.478;8.986;2024-02-21T07:43:51;14.40;;;11.93;;
32611;SDS011;19030;49.478;8.986;2024-02-21T07:45:52;19.75;;;11.82;;
32611;SDS011;19030;49.478;8.986;2024-02-21T07:47:55;18.23;;;10.55;;
32611;SDS011;19030;49.478;8.986;2024-02-21T07:49:56;18.13;;;11.48;;
32611;SDS011;19030;49.478;8.986;2024-02-21T07:51:56;18.70;;;11.70;;
32611;SDS011;19030;49.478;8.986;2024-02-21T07:53:57;21.15;;;11.00;;
32611;SDS011;19030;49.478;8.986;2024-02-21T07:55:58;28.88;;;14.05;;
32611;SDS011;19030;49.478;8.986;2024-02-21T07:57:58;18.60;;;12.07;;
32611;SDS011;19030;49.478;8.986;2024-02-21T07:59:59;16.92;;;10.98;;
32611;SDS011;19030;49.478;8.986;2024-02-21T08:01:59;17.30;;;13.02;;
32611;SDS011;19030;49.478;8.986;2024-02-21T08:04:00;16.88;;;13.68;;
32611;SDS011;19030;49.478;8.986;2024-02-21T08:06:01;17.92;;;13.50;;
32611;SDS011;19030;49.478;8.986;2024-02-21T08:08:03;22.33;;;15.52;;
32611;SDS011;19030;49.478;8.986;2024-02-21T08:10:04;21.60;;;13.52;;
32611;SDS011;19030;49.478;8.986;2024-02-21T08:12:07;14.48;;;11.10;;
32611;SDS011;19030;49.478;8.986;2024-02-21T08:14:08;17.35;;;11.88;;
32611;SDS011;19030;49.478;8.986;2024-02-21T08:16:08;20.77;;;12.93;;
32611;SDS011;19030;49.478;8.986;2024-02-21T08:18:09;17.83;;;13.45;;
32611;SDS011;19030;49.478;8.986;2024-02-21T08:20:10;16.30;;;11.63;;
32611;SDS011;19030;49.478;8.986;2024-02-21T08:22:11;16.25;;;12.43;;
32611;SDS011;19030;49.478;8.986;2024-02-21T08:24:11;15.02;;;13.52;;
32611;SDS011;19030;49.478;8.986;2024-02-21T08:26:12;22.88;;;13.35;;
32611;SDS011;19030;49.478;8.986;2024-02-21T08:28:13;24.35;;;14.20;;
32611;SDS011;19030;49.478;8.986;2024-02-21T08:30:14;20.85;;;13.38;;
32611;SDS011;19030;49.478;8.986;2024-02-21T08:32:15;16.85;;;14.35;;
32611;SDS011;19030;49.478;8.986;2024-02-21T08:34:15;17.65;;;13.60;;
32611;SDS011;19030;49.478;8.986;2024-02-21T08:36:19;17.08;;;13.43;;
32611;SDS011;19030;49.478;8.986;2024-02-21T08:38:20;16.33;;;14.60;;
32611;SDS011;19030;49.478;8.986;2024-02-21T08:40:20;20.33;;;14.32;;
32611;SDS011;19030;49.478;8.986;2024-02-21T08:42:21;90.85;;;46.97;;
32611;SDS011;19030;49.478;8.986;2024-02-21T08:44:22;40.25;;;25.60;;
32611;SDS011;19030;49.478;8.986;2024-02-21T08:46:24;31.08;;;20.80;;
32611;SDS011;19030;49.478;8.986;2024-02-21T08:48:25;18.85;;;14.30;;
32611;SDS011;19030;49.478;8.986;2024-02-21T08:50:25;15.65;;;12.50;;
32611;SDS011;19030;49.478;8.986;2024-02-21T08:52:26;19.23;;;17.08;;
32611;SDS011;19030;49.478;8.986;2024-02-21T08:54:26;22.05;;;14.32;;
32611;SDS011;19030;49.478;8.986;2024-02-21T08:56:27;18.73;;;14.35;;
32611;SDS011;19030;49.478;8.986;2024-02-21T08:58:30;21.20;;;15.05;;
32611;SDS011;19030;49.478;8.986;2024-02-21T09:00:30;17.65;;;13.75;;
32611;SDS011;19030;49.478;8.986;2024-02-21T09:02:31;20.60;;;13.65;;
32611;SDS011;19030;49.478;8.986;2024-02-21T09:04:31;21.88;;;14.98;;
32611;SDS011;19030;49.478;8.986;2024-02-21T09:06:32;23.05;;;14.18;;
32611;SDS011;19030;49.478;8.986;2024-02-21T09:08:36;16.83;;;14.57;;
32611;SDS011;19030;49.478;8.986;2024-02-21T09:10:36;25.73;;;14.57;;
32611;SDS011;19030;49.478;8.986;2024-02-21T09:12:37;18.98;;;16.13;;
32611;SDS011;19030;49.478;8.986;2024-02-21T09:14:37;16.48;;;12.07;;
32611;SDS011;19030;49.478;8.986;2024-02-21T09:16:38;18.40;;;15.15;;
32611;SDS011;19030;49.478;8.986;2024-02-21T09:18:39;18.17;;;14.38;;
32611;SDS011;19030;49.478;8.986;2024-02-21T09:20:40;18.25;;;14.88;;
32611;SDS011;19030;49.478;8.986;2024-02-21T09:22:40;20.90;;;14.93;;
32611;SDS011;19030;49.478;8.986;2024-02-21T09:24:41;17.38;;;12.63;;
32611;SDS011;19030;49.478;8.986;2024-02-21T09:26:41;21.40;;;15.27;;
32611;SDS011;19030;49.478;8.986;2024-02-21T09:28:42;23.35;;;16.60;;
32611;SDS011;19030;49.478;8.986;2024-02-21T09:30:44;24.52;;;17.90;;
32611;SDS011;19030;49.478;8.986;2024-02-21T09:32:45;19.25;;;17.23;;
32611;SDS011;19030;49.478;8.986;2024-02-21T09:34:46;21.90;;;15.98;;
32611;SDS011;19030;49.478;8.986;2024-02-21T09:36:47;19.50;;;15.82;;
32611;SDS011;19030;49.478;8.986;2024-02-21T09:38:47;21.23;;;16.70;;
32611;SDS011;19030;49.478;8.986;2024-02-21T09:40:53;20.83;;;15.95;;
32611;SDS011;19030;49.478;8.986;2024-02-21T09:43:03;19.25;;;13.75;;
32611;SDS011;19030;49.478;8.986;2024-02-21T09:45:08;18.70;;;13.30;;
32611;SDS011;19030;49.478;8.986;2024-02-21T09:47:24;19.85;;;12.57;;
32611;SDS011;19030;49.478;8.986;2024-02-21T09:49:34;16.00;;;12.88;;
32611;SDS011;19030;49.478;8.986;2024-02-21T09:51:37;15.93;;;12.55;;
32611;SDS011;19030;49.478;8.986;2024-02-21T09:53:40;17.00;;;12.20;;
32611;SDS011;19030;49.478;8.986;2024-02-21T09:55:43;18.85;;;12.27;;
32611;SDS011;19030;49.478;8.986;2024-02-21T09:57:44;16.40;;;13.20;;
32611;SDS011;19030;49.478;8.986;2024-02-21T09:59:45;18.17;;;14.00;;
32611;SDS011;19030;49.478;8.986;2024-02-21T10:01:46;17.98;;;13.50;;
32611;SDS011;19030;49.478;8.986;2024-02-21T10:03:46;17.58;;;13.95;;
32611;SDS011;19030;49.478;8.986;2024-02-21T10:05:48;20.27;;;13.05;;
32611;SDS011;19030;49.478;8.986;2024-02-21T10:07:52;18.38;;;13.55;;
32611;SDS011;19030;49.478;8.986;2024-02-21T10:10:04;17.60;;;12.75;;
32611;SDS011;19030;49.478;8.986;2024-02-21T10:12:09;16.23;;;12.95;;
32611;SDS011;19030;49.478;8.986;2024-02-21T10:14:10;17.90;;;12.05;;
32611;SDS011;19030;49.478;8.986;2024-02-21T10:16:11;13.85;;;12.13;;
32611;SDS011;19030;49.478;8.986;2024-02-21T10:18:11;19.02;;;12.68;;
32611;SDS011;19030;49.478;8.986;2024-02-21T10:20:12;15.52;;;12.15;;
32611;SDS011;19030;49.478;8.986;2024-02-21T10:22:14;20.58;;;12.75;;
32611;SDS011;19030;49.478;8.986;2024-02-21T10:24:25;20.65;;;12.73;;
32611;SDS011;19030;49.478;8.986;2024-02-21T10:26:27;19.00;;;14.52;;
32611;SDS011;19030;49.478;8.986;2024-02-21T10:28:28;20.48;;;17.13;;
32611;SDS011;19030;49.478;8.986;2024-02-21T10:30:28;22.75;;;18.17;;
32611;SDS011;19030;49.478;8.986;2024-02-21T10:32:29;12.38;;;8.15;;
32611;SDS011;19030;49.478;8.986;2024-02-21T10:34:30;13.85;;;7.60;;
32611;SDS011;19030;49.478;8.986;2024-02-21T10:36:31;17.30;;;7.63;;
32611;SDS011;19030;49.478;8.986;2024-02-21T10:38:31;16.20;;;8.15;;
32611;SDS011;19030;49.478;8.986;2024-02-21T10:40:33;12.27;;;7.13;;
32611;SDS011;19030;49.478;8.986;2024-02-21T10:42:34;14.55;;;6.38;;
32611;SDS011;19030;49.478;8.986;2024-02-21T10:44:37;12.18;;;6.72;;
32611;SDS011;19030;49.478;8.986;2024-02-21T10:46:42;9.85;;;7.05;;
32611;SDS011;19030;49.478;8.986;2024-02-21T10:48:44;15.57;;;6.60;;
32611;SDS011;19030;49.478;8.986;2024-02-21T10:51:00;15.52;;;6.97;;
32611;SDS011;19030;49.478;8.986;2024-02-21T10:53:11;12.73;;;6.33;;
32611;SDS011;19030;49.478;8.986;2024-02-21T10:55:41;12.20;;;5.95;;
32611;SDS011;19030;49.478;8.986;2024-02-21T10:57:49;13.63;;;6.28;;
32611;SDS011;19030;49.478;8.986;2024-02-21T10:59:50;15.23;;;6.35;;
32611;SDS011;19030;49.478;8.986;2024-02-21T11:01:53;17.42;;;8.30;;
32611;SDS011;19030;49.478;8.986;2024-02-21T11:03:53;11.82;;;7.10;;
32611;SDS011;19030;49.478;8.986;2024-02-21T11:05:55;13.65;;;6.20;;
32611;SDS011;19030;49.478;8.986;2024-02-21T11:07:56;10.88;;;6.20;;
32611;SDS011;19030;49.478;8.986;2024-02-21T11:09:57;12.68;;;5.47;;
32611;SDS011;19030;49.478;8.986;2024-02-21T11:12:02;11.80;;;6.47;;
32611;SDS011;19030;49.478;8.986;2024-02-21T11:14:05;11.95;;;5.95;;
32611;SDS011;19030;49.478;8.986;2024-02-21T11:16:09;14.77;;;7.07;;
32611;SDS011;19030;49.478;8.986;2024-02-21T11:18:10;11.10;;;5.57;;
32611;SDS011;19030;49.478;8.986;2024-02-21T11:20:14;10.95;;;5.47;;
32611;SDS011;19030;49.478;8.986;2024-02-21T11:22:15;11.98;;;5.45;;
32611;SDS011;19030;49.478;8.986;2024-02-21T11:26:32;12.80;;;5.65;;
32611;SDS011;19030;49.478;8.986;2024-02-21T11:28:33;16.70;;;5.75;;
32611;SDS011;19030;49.478;8.986;2024-02-21T11:30:35;18.13;;;6.47;;
32611;SDS011;19030;49.478;8.986;2024-02-21T11:32:36;13.43;;;5.78;;
32611;SDS011;19030;49.478;8.986;2024-02-21T11:34:36;13.52;;;5.75;;
32611;SDS011;19030;49.478;8.986;2024-02-21T11:36:49;12.03;;;5.67;;
32611;SDS011;19030;49.478;8.986;2024-02-21T11:38:51;12.40;;;5.30;;
32611;SDS011;19030;49.478;8.986;2024-02-21T11:40:55;15.35;;;5.35;;
32611;SDS011;19030;49.478;8.986;2024-02-21T11:42:58;10.15;;;5.28;;
32611;SDS011;19030;49.478;8.986;2024-02-21T11:44:59;12.40;;;5.45;;
32611;SDS011;19030;49.478;8.986;2024-02-21T11:47:00;14.55;;;6.30;;
32611;SDS011;19030;49.478;8.986;2024-02-21T11:49:01;12.98;;;6.60;;
32611;SDS011;19030;49.478;8.986;2024-02-21T11:51:03;16.48;;;7.20;;
32611;SDS011;19030;49.478;8.986;2024-02-21T11:53:05;12.75;;;6.20;;
32611;SDS011;19030;49.478;8.986;2024-02-21T11:55:06;10.90;;;5.18;;